Time;durP1;ratioP1;P1;durP2;ratioP2;P2;SDS_P1;SDS_P2;PMS_P1;PMS_P2;Temp;Humidity;BMP_temperature;BMP_pressure;BME280_temperature;BME280_humidity;BME280_pressure;Samples;Min_cycle;Max_cycle;Signal;HPM_P1;HPM_P2
2023/03/04 00:01:23;;;;;;;31.68;18.10;;;;;;;3.00;69.00;100044.35;1737241;82;21227;-57
2023/03/04 00:04:50;;;;;;;27.42;16.97;;;;;;;2.95;69.03;100037.14;1773327;80;21351;-57
2023/03/04 00:08:34;;;;;;;27.77;17.73;;;;;;;2.94;69.11;100040.36;1742332;80;21331;-57
2023/03/04 00:12:14;;;;;;;30.15;18.60;;;;;;;2.99;69.13;100030.48;1877852;76;22226;-57
2023/03/04 00:15:40;;;;;;;31.10;18.30;;;;;;;2.90;69.11;100031.31;1767689;81;21343;-56
2023/03/04 00:19:11;;;;;;;30.90;17.73;;;;;;;2.85;69.13;100026.80;1799363;79;21177;-57
2023/03/04 00:22:33;;;;;;;35.55;18.85;;;;;;;2.80;69.15;100019.59;1784762;79;21208;-56
2023/03/04 00:26:02;;;;;;;30.95;19.25;;;;;;;2.74;69.17;100032.30;1805163;79;21753;-57
2023/03/04 00:29:21;;;;;;;30.48;18.12;;;;;;;2.69;69.19;100027.80;1804898;79;21217;-57
2023/03/04 00:32:41;;;;;;;31.93;19.37;;;;;;;2.63;69.18;100019.72;1803380;79;21204;-57
2023/03/04 00:36:13;;;;;;;31.37;18.95;;;;;;;2.59;69.19;100018.78;1769282;79;21243;-58
2023/03/04 00:39:35;;;;;;;32.28;19.82;;;;;;;2.55;69.27;100026.28;1804925;79;21217;-58
2023/03/04 00:42:55;;;;;;;34.10;19.20;;;;;;;2.52;69.30;100021.16;1802011;79;21197;-57
2023/03/04 00:46:18;;;;;;;28.77;17.70;;;;;;;2.48;69.29;100013.45;1803924;79;21208;-58
2023/03/04 00:49:38;;;;;;;;;;;;;;;2.41;69.31;100013.13;1808589;79;21630;-57
2023/03/04 00:52:58;;;;;;;32.50;19.05;;;;;;;2.34;69.31;100008.41;1762219;79;20205;-56
2023/03/04 00:56:35;;;;;;;33.65;19.62;;;;;;;2.29;69.37;100004.76;1784815;79;21228;-56
2023/03/04 01:00:01;;;;;;;34.48;18.73;;;;;;;2.26;69.42;100002.81;1805145;79;21220;-58
2023/03/04 01:03:21;;;;;;;41.83;19.00;;;;;;;2.24;69.49;100008.34;1805842;79;21761;-57
2023/03/04 01:06:52;;;;;;;32.48;19.45;;;;;;;2.23;69.45;100008.00;1784702;79;21192;-57
2023/03/04 01:10:15;;;;;;;32.45;19.37;;;;;;;2.19;69.48;99999.78;1804907;79;21748;-58
2023/03/04 01:13:33;;;;;;;33.15;19.37;;;;;;;2.16;69.47;100005.93;1803239;79;21311;-57
2023/03/04 01:16:53;;;;;;;31.60;19.35;;;;;;;2.11;69.48;100001.45;1796826;79;21229;-57
2023/03/04 01:20:15;;;;;;;32.25;18.20;;;;;;;2.11;69.52;100004.98;1863402;76;22275;-55
2023/03/04 01:23:38;;;;;;;36.63;20.60;;;;;;;2.02;69.52;100000.37;1805848;79;21310;-58
2023/03/04 01:27:02;;;;;;;38.70;20.72;;;;;;;1.97;69.55;100012.55;1805869;79;21220;-57
2023/03/04 01:30:23;;;;;;;36.98;21.17;;;;;;;1.93;69.55;100015.16;1805558;79;21339;-58
2023/03/04 01:33:51;;;;;;;37.17;20.85;;;;;;;1.89;69.59;100008.32;1805091;79;21319;-58
2023/03/04 01:37:12;;;;;;;37.50;21.30;;;;;;;1.85;69.62;100007.72;1805124;79;21201;-56
2023/03/04 01:40:33;;;;;;;34.08;20.75;;;;;;;1.87;69.65;100014.33;1857927;76;22247;-55
2023/03/04 01:43:55;;;;;;;34.85;20.48;;;;;;;1.79;69.70;100009.59;1789295;79;21137;-57
2023/03/04 01:47:23;;;;;;;33.15;19.70;;;;;;;1.76;69.74;100008.48;1805773;79;21331;-57
2023/03/04 01:50:41;;;;;;;;;;;;;;;1.77;69.79;100017.44;1808437;79;21267;-55
2023/03/04 01:54:12;;;;;;;34.25;20.00;;;;;;;1.80;69.80;100019.87;1805239;79;20545;-57
2023/03/04 01:57:39;;;;;;;36.42;20.37;;;;;;;1.85;69.84;100023.05;1805722;79;21197;-55
2023/03/04 02:00:59;;;;;;;34.63;20.30;;;;;;;1.87;69.88;100015.69;1788171;79;21442;-57
2023/03/04 02:04:24;;;;;;;33.95;19.37;;;;;;;1.87;69.88;100019.22;1805305;79;21173;-58
2023/03/04 02:07:58;;;;;;;38.58;20.82;;;;;;;1.81;69.86;100017.05;1805001;79;21813;-59
2023/03/04 02:11:17;;;;;;;37.88;20.72;;;;;;;1.78;69.92;100011.04;1805572;79;21563;-55
2023/03/04 02:14:36;;;;;;;37.50;20.72;;;;;;;1.76;69.95;100011.69;1805305;79;21213;-56
2023/03/04 02:17:57;;;;;;;40.38;20.35;;;;;;;1.71;69.96;100009.38;1805302;79;21189;-56
2023/03/04 02:21:48;;;;;;;34.95;20.75;;;;;;;1.65;69.92;100009.04;1805706;79;21236;-58
2023/03/04 02:25:10;;;;;;;38.30;21.97;;;;;;;1.59;69.96;100005.52;1805460;79;21239;-58
2023/03/04 02:28:30;;;;;;;38.13;21.75;;;;;;;1.53;69.98;100004.17;1805377;79;21184;-60
2023/03/04 02:31:50;;;;;;;39.30;21.48;;;;;;;1.48;70.00;100003.21;1801683;79;21204;-56
2023/03/04 02:35:07;;;;;;;38.55;20.95;;;;;;;1.44;70.02;100003.59;1805530;79;21749;-58
2023/03/04 02:38:26;;;;;;;36.60;20.10;;;;;;;1.39;70.07;100003.98;1805487;79;21185;-60
2023/03/04 02:41:43;;;;;;;40.92;22.15;;;;;;;1.35;70.07;100007.91;1785852;79;21373;-57
2023/03/04 02:44:55;;;;;;;40.10;21.82;;;;;;;1.31;70.14;100001.55;1804133;79;21263;-58
2023/03/04 02:48:17;;;;;;;39.78;21.85;;;;;;;1.28;70.18;100004.50;1805481;79;21845;-56
2023/03/04 02:51:37;;;;;;;39.08;20.70;;;;;;;1.26;70.21;100001.06;1803586;79;21221;-57
2023/03/04 02:55:14;;;;;;;39.13;22.15;;;;;;;1.23;70.25;99997.28;1783643;79;21840;-56
2023/03/04 02:58:39;;;;;;;43.15;22.52;;;;;;;1.20;70.28;100002.45;1780885;79;21165;-55
2023/03/04 03:02:06;;;;;;;39.05;21.57;;;;;;;1.18;70.32;100008.92;1804746;79;21907;-56
2023/03/04 03:05:43;;;;;;;40.05;21.68;;;;;;;1.15;70.34;100002.45;1781856;79;21825;-57
2023/03/04 03:09:04;;;;;;;38.78;22.48;;;;;;;1.10;70.38;99999.27;1795874;79;21254;-56
2023/03/04 03:12:17;;;;;;;39.15;21.82;;;;;;;1.07;70.42;99999.04;1804906;79;21305;-57
2023/03/04 03:15:26;;;;;;;36.73;20.65;;;;;;;1.05;70.42;100005.52;1787093;79;21260;-56
2023/03/04 03:22:32;;;;;;;41.15;21.12;;;;;;;1.00;70.51;100001.85;1727914;82;21347;-57
2023/03/04 03:25:51;;;;;;;37.90;21.50;;;;;;;0.98;70.53;100001.11;1694232;83;21407;-57
2023/03/04 03:29:07;;;;;;;41.68;22.25;;;;;;;0.96;70.52;100007.14;1678934;84;21225;-56
2023/03/04 03:32:23;;;;;;;39.70;22.35;;;;;;;0.92;70.58;100000.27;1678857;85;22004;-56
2023/03/04 03:35:47;;;;;;;41.60;21.90;;;;;;;0.89;70.62;99995.61;1678725;84;21852;-57
2023/03/04 03:39:11;;;;;;;41.05;22.40;;;;;;;0.88;70.66;99997.47;1678892;85;21310;-59
2023/03/04 03:42:25;;;;;;;50.78;26.07;;;;;;;0.84;70.63;99979.83;1678733;85;21347;-58
2023/03/04 03:45:56;;;;;;;45.05;23.70;;;;;;;0.83;70.67;99981.30;1678923;84;21245;-56
2023/03/04 03:49:20;;;;;;;47.62;24.45;;;;;;;0.81;70.71;99979.25;1678880;84;21233;-56
2023/03/04 03:52:44;;;;;;;40.88;22.77;;;;;;;0.78;70.75;99981.68;1667678;85;21205;-58
2023/03/04 03:56:08;;;;;;;43.00;23.07;;;;;;;0.81;70.78;99965.27;1831898;76;22299;-56
2023/03/04 03:59:26;;;;;;;46.73;23.10;;;;;;;0.74;70.80;99972.15;1774075;79;21189;-56
2023/03/04 04:02:45;;;;;;;43.50;22.27;;;;;;;0.72;70.86;99975.45;1772375;80;21686;-57
2023/03/04 04:06:05;;;;;;;41.68;22.40;;;;;;;0.72;70.90;99976.80;1773393;79;21413;-57
2023/03/04 04:09:22;;;;;;;39.88;23.27;;;;;;;0.69;70.94;99967.62;1772392;79;21240;-57
2023/03/04 04:12:40;;;;;;;44.93;23.92;;;;;;;0.69;70.97;99970.80;1771976;81;21324;-57
2023/03/04 04:16:02;;;;;;;45.20;22.55;;;;;;;0.68;70.97;99971.78;1771793;79;21205;-57
2023/03/04 04:19:24;;;;;;;43.05;23.27;;;;;;;0.66;71.00;99967.88;1772801;79;21240;-57
2023/03/04 04:22:48;;;;;;;48.85;23.80;;;;;;;0.66;71.02;99975.08;1733655;82;21758;-59
2023/03/04 04:26:15;;;;;;;50.43;24.10;;;;;;;0.65;71.03;99977.42;1733513;81;21342;-59
2023/03/04 04:29:32;;;;;;;42.78;22.75;;;;;;;0.63;71.07;99980.72;1733423;81;21327;-59
2023/03/04 04:32:47;;;;;;;44.20;23.62;;;;;;;0.64;71.12;99987.33;1742785;82;21185;-56
2023/03/04 04:36:10;;;;;;;44.27;23.75;;;;;;;0.64;71.20;99985.11;1742207;81;21248;-59
2023/03/04 04:39:28;;;;;;;45.03;23.60;;;;;;;0.66;71.19;99989.41;1741192;81;21240;-57
2023/03/04 04:42:55;;;;;;;40.60;23.05;;;;;;;0.67;71.18;99982.17;1732531;82;21189;-56
2023/03/04 04:46:15;;;;;;;42.03;21.23;;;;;;;0.66;71.20;99981.34;1751125;80;21876;-57
2023/03/04 04:49:35;;;;;;;41.08;22.55;;;;;;;0.70;71.27;99984.13;1751398;81;21201;-56
2023/03/04 04:52:54;;;;;;;43.80;23.45;;;;;;;0.73;71.32;99979.84;1717430;82;21322;-56
2023/03/04 04:56:08;;;;;;;43.38;23.42;;;;;;;0.77;71.36;99977.77;1740963;80;21237;-57
2023/03/04 04:59:32;;;;;;;44.83;23.55;;;;;;;0.82;71.41;99971.52;1753455;81;21189;-57
2023/03/04 05:02:54;;;;;;;42.13;23.47;;;;;;;0.87;71.41;99978.23;1752171;81;21564;-57
2023/03/04 05:06:16;;;;;;;44.45;23.62;;;;;;;0.92;71.41;99976.53;1734428;81;21236;-57
2023/03/04 05:09:35;;;;;;;45.65;26.35;;;;;;;0.94;71.38;99971.37;1740977;81;21263;-59
2023/03/04 05:13:06;;;;;;;57.35;28.98;;;;;;;0.95;71.33;99971.73;1733265;82;21233;-57
2023/03/04 05:16:22;;;;;;;54.05;28.35;;;;;;;1.00;71.39;99968.69;1740770;81;21197;-58
2023/03/04 05:19:42;;;;;;;45.43;26.00;;;;;;;1.03;71.38;99968.42;1732138;81;21192;-59
2023/03/04 05:23:13;;;;;;;46.95;26.80;;;;;;;1.08;71.38;99964.84;1740956;82;21339;-59
2023/03/04 05:26:37;;;;;;;53.23;27.13;;;;;;;1.14;71.44;99967.89;1740523;79;21189;-58
2023/03/04 05:29:58;;;;;;;51.48;25.95;;;;;;;1.21;71.50;99968.23;1739169;81;21225;-58
2023/03/04 05:33:14;;;;;;;46.15;25.27;;;;;;;1.27;71.51;99975.33;1740589;81;21197;-59
2023/03/04 05:36:28;;;;;;;48.23;26.45;;;;;;;1.34;71.55;99982.42;1740745;81;21232;-58
2023/03/04 05:40:08;;;;;;;51.33;26.95;;;;;;;1.38;71.52;99994.16;1741224;81;21205;-58
